sensor_id;sensor_type;location;lat;lon;timestamp;P1;durP1;ratioP1;P2;durP2;ratioP2
53903;SDS011;39812;52.430;16.936;2023-03-23T00:01:07;18.52;;;9.20;;
53903;SDS011;39812;52.430;16.936;2023-03-23T00:03:35;18.88;;;9.70;;
53903;SDS011;39812;52.430;16.936;2023-03-23T00:06:01;18.48;;;9.30;;
53903;SDS011;39812;52.430;16.936;2023-03-23T00:08:30;17.05;;;8.90;;
53903;SDS011;39812;52.430;16.936;2023-03-23T00:10:57;18.05;;;9.02;;
53903;SDS011;39812;52.430;16.936;2023-03-23T00:13:25;19.15;;;9.13;;
53903;SDS011;39812;52.430;16.936;2023-03-23T00:15:53;17.35;;;9.88;;
53903;SDS011;39812;52.430;16.936;2023-03-23T00:18:19;19.15;;;8.52;;
53903;SDS011;39812;52.430;16.936;2023-03-23T00:20:49;19.42;;;8.85;;
53903;SDS011;39812;52.430;16.936;2023-03-23T00:23:16;17.98;;;8.80;;
53903;SDS011;39812;52.430;16.936;2023-03-23T00:25:48;16.27;;;7.97;;
53903;SDS011;39812;52.430;16.936;2023-03-23T00:28:15;18.08;;;8.52;;
53903;SDS011;39812;52.430;16.936;2023-03-23T00:30:42;16.88;;;8.27;;
53903;SDS011;39812;52.430;16.936;2023-03-23T00:33:09;18.90;;;8.65;;
53903;SDS011;39812;52.430;16.936;2023-03-23T00:35:37;21.35;;;9.13;;
53903;SDS011;39812;52.430;16.936;2023-03-23T00:38:04;15.85;;;9.10;;
53903;SDS011;39812;52.430;16.936;2023-03-23T00:40:30;15.90;;;8.45;;
53903;SDS011;39812;52.430;16.936;2023-03-23T00:43:00;19.95;;;8.32;;
53903;SDS011;39812;52.430;16.936;2023-03-23T00:45:28;21.67;;;8.30;;
53903;SDS011;39812;52.430;16.936;2023-03-23T00:47:54;16.88;;;8.38;;
53903;SDS011;39812;52.430;16.936;2023-03-23T00:50:21;19.55;;;8.43;;
53903;SDS011;39812;52.430;16.936;2023-03-23T00:52:47;15.35;;;8.88;;
53903;SDS011;39812;52.430;16.936;2023-03-23T00:55:17;20.63;;;9.60;;
53903;SDS011;39812;52.430;16.936;2023-03-23T00:57:43;16.10;;;7.95;;
53903;SDS011;39812;52.430;16.936;2023-03-23T01:00:08;15.05;;;7.45;;
53903;SDS011;39812;52.430;16.936;2023-03-23T01:02:36;16.88;;;8.13;;
53903;SDS011;39812;52.430;16.936;2023-03-23T01:05:01;15.13;;;7.60;;
53903;SDS011;39812;52.430;16.936;2023-03-23T01:07:28;17.30;;;8.00;;
53903;SDS011;39812;52.430;16.936;2023-03-23T01:09:56;16.58;;;8.05;;
53903;SDS011;39812;52.430;16.936;2023-03-23T01:12:22;12.32;;;7.18;;
53903;SDS011;39812;52.430;16.936;2023-03-23T01:14:49;15.73;;;7.68;;
53903;SDS011;39812;52.430;16.936;2023-03-23T01:17:16;15.98;;;7.43;;
53903;SDS011;39812;52.430;16.936;2023-03-23T01:19:41;16.58;;;8.25;;
53903;SDS011;39812;52.430;16.936;2023-03-23T01:22:08;15.98;;;7.55;;
53903;SDS011;39812;52.430;16.936;2023-03-23T01:24:33;18.13;;;7.47;;
53903;SDS011;39812;52.430;16.936;2023-03-23T01:26:59;19.08;;;7.93;;
53903;SDS011;39812;52.430;16.936;2023-03-23T01:29:31;16.88;;;7.40;;
53903;SDS011;39812;52.430;16.936;2023-03-23T01:31:58;20.20;;;8.55;;
53903;SDS011;39812;52.430;16.936;2023-03-23T01:34:23;14.95;;;7.13;;
53903;SDS011;39812;52.430;16.936;2023-03-23T01:36:49;18.48;;;8.85;;
53903;SDS011;39812;52.430;16.936;2023-03-23T01:39:15;21.90;;;8.57;;
53903;SDS011;39812;52.430;16.936;2023-03-23T01:41:40;19.15;;;8.43;;
53903;SDS011;39812;52.430;16.936;2023-03-23T01:44:07;20.42;;;9.02;;
53903;SDS011;39812;52.430;16.936;2023-03-23T01:46:53;17.80;;;9.25;;
53903;SDS011;39812;52.430;16.936;2023-03-23T01:49:21;20.15;;;9.68;;
53903;SDS011;39812;52.430;16.936;2023-03-23T01:52:04;23.38;;;10.75;;
53903;SDS011;39812;52.430;16.936;2023-03-23T01:54:35;22.88;;;10.93;;
53903;SDS011;39812;52.430;16.936;2023-03-23T01:57:07;26.50;;;11.63;;
53903;SDS011;39812;52.430;16.936;2023-03-23T01:59:42;21.95;;;10.65;;
53903;SDS011;39812;52.430;16.936;2023-03-23T02:02:10;23.27;;;10.80;;
53903;SDS011;39812;52.430;16.936;2023-03-23T02:04:37;27.10;;;11.95;;
53903;SDS011;39812;52.430;16.936;2023-03-23T02:07:04;19.80;;;10.95;;
53903;SDS011;39812;52.430;16.936;2023-03-23T02:09:29;21.38;;;11.23;;
53903;SDS011;39812;52.430;16.936;2023-03-23T02:11:55;22.58;;;11.70;;
53903;SDS011;39812;52.430;16.936;2023-03-23T02:14:22;24.98;;;11.35;;
53903;SDS011;39812;52.430;16.936;2023-03-23T02:17:01;22.67;;;11.00;;
53903;SDS011;39812;52.430;16.936;2023-03-23T02:35:46;19.40;;;10.13;;
53903;SDS011;39812;52.430;16.936;2023-03-23T02:38:25;17.23;;;10.68;;
53903;SDS011;39812;52.430;16.936;2023-03-23T02:41:17;19.15;;;10.48;;
53903;SDS011;39812;52.430;16.936;2023-03-23T02:43:49;19.52;;;10.02;;
53903;SDS011;39812;52.430;16.936;2023-03-23T02:46:16;20.90;;;10.35;;
53903;SDS011;39812;52.430;16.936;2023-03-23T02:48:43;18.67;;;9.02;;
53903;SDS011;39812;52.430;16.936;2023-03-23T02:51:13;20.60;;;9.85;;
53903;SDS011;39812;52.430;16.936;2023-03-23T02:53:41;17.88;;;9.23;;
53903;SDS011;39812;52.430;16.936;2023-03-23T02:56:08;20.08;;;9.43;;
53903;SDS011;39812;52.430;16.936;2023-03-23T02:58:35;21.85;;;9.55;;
53903;SDS011;39812;52.430;16.936;2023-03-23T03:01:14;18.33;;;8.90;;
53903;SDS011;39812;52.430;16.936;2023-03-23T03:04:10;16.15;;;8.77;;
53903;SDS011;39812;52.430;16.936;2023-03-23T03:14:44;14.93;;;8.07;;
53903;SDS011;39812;52.430;16.936;2023-03-23T03:17:25;15.23;;;7.93;;
53903;SDS011;39812;52.430;16.936;2023-03-23T03:19:58;13.07;;;7.00;;
53903;SDS011;39812;52.430;16.936;2023-03-23T03:22:35;13.73;;;8.00;;
53903;SDS011;39812;52.430;16.936;2023-03-23T03:25:04;15.15;;;7.30;;
53903;SDS011;39812;52.430;16.936;2023-03-23T03:27:31;16.35;;;7.35;;
53903;SDS011;39812;52.430;16.936;2023-03-23T03:29:58;17.50;;;7.55;;
53903;SDS011;39812;52.430;16.936;2023-03-23T03:32:28;11.80;;;7.22;;
53903;SDS011;39812;52.430;16.936;2023-03-23T03:35:00;12.38;;;6.82;;
53903;SDS011;39812;52.430;16.936;2023-03-23T03:37:32;16.40;;;7.40;;
53903;SDS011;39812;52.430;16.936;2023-03-23T03:40:02;14.50;;;7.10;;
53903;SDS011;39812;52.430;16.936;2023-03-23T03:42:40;14.10;;;6.95;;
53903;SDS011;39812;52.430;16.936;2023-03-23T03:45:08;14.95;;;7.55;;
53903;SDS011;39812;52.430;16.936;2023-03-23T03:47:35;16.85;;;7.25;;
53903;SDS011;39812;52.430;16.936;2023-03-23T03:50:01;16.42;;;7.70;;
53903;SDS011;39812;52.430;16.936;2023-03-23T03:52:26;14.38;;;7.07;;
53903;SDS011;39812;52.430;16.936;2023-03-23T03:54:52;14.02;;;7.10;;
53903;SDS011;39812;52.430;16.936;2023-03-23T03:57:18;12.68;;;6.97;;
53903;SDS011;39812;52.430;16.936;2023-03-23T03:59:44;13.45;;;6.90;;
53903;SDS011;39812;52.430;16.936;2023-03-23T04:02:10;13.10;;;6.07;;
53903;SDS011;39812;52.430;16.936;2023-03-23T04:04:39;9.45;;;6.30;;
53903;SDS011;39812;52.430;16.936;2023-03-23T04:07:06;11.82;;;6.57;;
53903;SDS011;39812;52.430;16.936;2023-03-23T04:09:36;11.57;;;6.13;;
53903;SDS011;39812;52.430;16.936;2023-03-23T04:12:02;14.00;;;6.38;;
53903;SDS011;39812;52.430;16.936;2023-03-23T04:14:28;8.80;;;5.70;;
53903;SDS011;39812;52.430;16.936;2023-03-23T04:16:53;12.07;;;5.88;;
53903;SDS011;39812;52.430;16.936;2023-03-23T04:19:22;9.25;;;5.72;;
53903;SDS011;39812;52.430;16.936;2023-03-23T04:21:48;11.52;;;5.60;;
53903;SDS011;39812;52.430;16.936;2023-03-23T04:24:14;8.73;;;4.70;;
53903;SDS011;39812;52.430;16.936;2023-03-23T04:26:40;9.73;;;5.40;;
53903;SDS011;39812;52.430;16.936;2023-03-23T04:29:07;10.65;;;5.50;;
53903;SDS011;39812;52.430;16.936;2023-03-23T04:31:34;12.07;;;4.95;;
53903;SDS011;39812;52.430;16.936;2023-03-23T04:34:00;8.38;;;4.97;;
53903;SDS011;39812;52.430;16.936;2023-03-23T04:36:27;9.73;;;4.88;;
53903;SDS011;39812;52.430;16.936;2023-03-23T04:38:54;9.55;;;4.50;;
53903;SDS011;39812;52.430;16.936;2023-03-23T04:41:21;10.40;;;5.32;;
53903;SDS011;39812;52.430;16.936;2023-03-23T04:43:48;10.77;;;4.78;;
53903;SDS011;39812;52.430;16.936;2023-03-23T04:46:18;8.73;;;4.80;;
53903;SDS011;39812;52.430;16.936;2023-03-23T04:48:46;7.03;;;4.25;;
53903;SDS011;39812;52.430;16.936;2023-03-23T04:51:12;10.15;;;4.32;;
53903;SDS011;39812;52.430;16.936;2023-03-23T04:53:38;6.55;;;4.05;;
53903;SDS011;39812;52.430;16.936;2023-03-23T04:56:04;8.10;;;3.65;;
53903;SDS011;39812;52.430;16.936;2023-03-23T04:58:30;6.70;;;3.83;;
53903;SDS011;39812;52.430;16.936;2023-03-23T05:00:59;5.72;;;3.67;;
53903;SDS011;39812;52.430;16.936;2023-03-23T05:03:25;7.00;;;4.03;;
53903;SDS011;39812;52.430;16.936;2023-03-23T05:05:52;9.27;;;4.20;;
53903;SDS011;39812;52.430;16.936;2023-03-23T05:08:21;9.15;;;3.65;;
53903;SDS011;39812;52.430;16.936;2023-03-23T05:10:52;8.98;;;3.78;;
53903;SDS011;39812;52.430;16.936;2023-03-23T05:13:19;7.15;;;2.90;;
53903;SDS011;39812;52.430;16.936;2023-03-23T05:15:45;11.02;;;4.05;;
53903;SDS011;39812;52.430;16.936;2023-03-23T05:18:11;6.97;;;3.08;;
53903;SDS011;39812;52.430;16.936;2023-03-23T05:20:37;6.53;;;3.00;;
53903;SDS011;39812;52.430;16.936;2023-03-23T05:23:03;7.45;;;3.05;;
53903;SDS011;39812;52.430;16.936;2023-03-23T05:25:29;6.03;;;3.10;;
53903;SDS011;39812;52.430;16.936;2023-03-23T05:27:55;5.90;;;3.15;;
53903;SDS011;39812;52.430;16.936;2023-03-23T05:30:21;7.78;;;2.85;;
53903;SDS011;39812;52.430;16.936;2023-03-23T05:32:49;6.78;;;3.38;;
53903;SDS011;39812;52.430;16.936;2023-03-23T05:35:15;5.82;;;3.15;;
53903;SDS011;39812;52.430;16.936;2023-03-23T05:37:42;5.53;;;3.15;;
53903;SDS011;39812;52.430;16.936;2023-03-23T05:40:10;7.35;;;2.80;;
53903;SDS011;39812;52.430;16.936;2023-03-23T05:42:37;6.72;;;3.42;;
53903;SDS011;39812;52.430;16.936;2023-03-23T05:45:06;6.78;;;3.42;;
53903;SDS011;39812;52.430;16.936;2023-03-23T05:47:34;7.28;;;2.90;;
53903;SDS011;39812;52.430;16.936;2023-03-23T05:50:00;7.70;;;3.53;;
53903;SDS011;39812;52.430;16.936;2023-03-23T05:52:26;5.78;;;3.00;;
53903;SDS011;39812;52.430;16.936;2023-03-23T05:54:52;6.72;;;3.20;;
53903;SDS011;39812;52.430;16.936;2023-03-23T05:57:18;6.70;;;3.10;;
53903;SDS011;39812;52.430;16.936;2023-03-23T05:59:46;6.93;;;2.83;;
53903;SDS011;39812;52.430;16.936;2023-03-23T06:02:12;6.75;;;2.97;;
53903;SDS011;39812;52.430;16.936;2023-03-23T06:04:42;5.97;;;3.08;;
53903;SDS011;39812;52.430;16.936;2023-03-23T06:07:08;7.03;;;2.70;;
53903;SDS011;39812;52.430;16.936;2023-03-23T06:09:39;6.10;;;2.65;;
53903;SDS011;39812;52.430;16.936;2023-03-23T06:12:06;5.18;;;2.45;;
53903;SDS011;39812;52.430;16.936;2023-03-23T06:14:32;5.45;;;2.28;;
53903;SDS011;39812;52.430;16.936;2023-03-23T06:16:58;5.68;;;2.47;;
53903;SDS011;39812;52.430;16.936;2023-03-23T06:19:24;4.53;;;2.58;;
53903;SDS011;39812;52.430;16.936;2023-03-23T06:21:51;5.63;;;2.50;;
53903;SDS011;39812;52.430;16.936;2023-03-23T06:24:19;4.75;;;2.67;;
53903;SDS011;39812;52.430;16.936;2023-03-23T06:26:46;5.85;;;2.28;;
53903;SDS011;39812;52.430;16.936;2023-03-23T06:29:13;5.07;;;2.55;;
53903;SDS011;39812;52.430;16.936;2023-03-23T06:31:45;4.15;;;2.58;;
53903;SDS011;39812;52.430;16.936;2023-03-23T06:34:13;6.45;;;2.10;;
53903;SDS011;39812;52.430;16.936;2023-03-23T06:36:39;6.78;;;2.45;;
53903;SDS011;39812;52.430;16.936;2023-03-23T06:39:05;3.03;;;1.90;;
53903;SDS011;39812;52.430;16.936;2023-03-23T06:41:32;3.10;;;2.10;;
53903;SDS011;39812;52.430;16.936;2023-03-23T06:43:58;5.80;;;2.65;;
53903;SDS011;39812;52.430;16.936;2023-03-23T06:46:24;4.93;;;2.10;;
53903;SDS011;39812;52.430;16.936;2023-03-23T06:48:51;3.67;;;2.10;;
53903;SDS011;39812;52.430;16.936;2023-03-23T06:51:17;5.03;;;2.00;;
53903;SDS011;39812;52.430;16.936;2023-03-23T06:53:43;5.10;;;2.53;;
53903;SDS011;39812;52.430;16.936;2023-03-23T06:56:09;5.35;;;2.45;;
53903;SDS011;39812;52.430;16.936;2023-03-23T06:58:36;6.78;;;2.65;;
53903;SDS011;39812;52.430;16.936;2023-03-23T07:01:02;5.72;;;2.15;;
53903;SDS011;39812;52.430;16.936;2023-03-23T07:03:29;4.43;;;2.10;;
53903;SDS011;39812;52.430;16.936;2023-03-23T07:05:56;3.75;;;2.10;;
53903;SDS011;39812;52.430;16.936;2023-03-23T07:08:22;4.63;;;2.17;;
53903;SDS011;39812;52.430;16.936;2023-03-23T07:10:51;7.60;;;2.00;;
53903;SDS011;39812;52.430;16.936;2023-03-23T07:13:18;5.70;;;2.63;;
53903;SDS011;39812;52.430;16.936;2023-03-23T07:15:45;6.00;;;2.33;;
53903;SDS011;39812;52.430;16.936;2023-03-23T07:18:11;8.65;;;2.80;;
53903;SDS011;39812;52.430;16.936;2023-03-23T07:20:36;4.45;;;2.25;;
53903;SDS011;39812;52.430;16.936;2023-03-23T07:23:02;7.40;;;2.83;;
53903;SDS011;39812;52.430;16.936;2023-03-23T07:25:30;6.22;;;2.78;;
53903;SDS011;39812;52.430;16.936;2023-03-23T07:27:59;4.35;;;2.45;;
53903;SDS011;39812;52.430;16.936;2023-03-23T07:30:26;5.28;;;2.03;;
53903;SDS011;39812;52.430;16.936;2023-03-23T07:32:52;5.82;;;2.20;;
53903;SDS011;39812;52.430;16.936;2023-03-23T07:35:18;6.45;;;2.60;;
53903;SDS011;39812;52.430;16.936;2023-03-23T07:37:43;5.07;;;2.08;;
53903;SDS011;39812;52.430;16.936;2023-03-23T07:40:10;10.30;;;2.30;;
53903;SDS011;39812;52.430;16.936;2023-03-23T07:42:42;6.43;;;2.38;;
53903;SDS011;39812;52.430;16.936;2023-03-23T07:45:12;5.07;;;2.30;;
53903;SDS011;39812;52.430;16.936;2023-03-23T07:47:39;5.25;;;2.53;;
53903;SDS011;39812;52.430;16.936;2023-03-23T07:50:05;5.47;;;2.25;;
53903;SDS011;39812;52.430;16.936;2023-03-23T07:52:32;5.57;;;2.60;;
53903;SDS011;39812;52.430;16.936;2023-03-23T07:54:59;5.38;;;2.50;;
53903;SDS011;39812;52.430;16.936;2023-03-23T07:57:27;5.25;;;2.40;;
53903;SDS011;39812;52.430;16.936;2023-03-23T07:59:53;5.43;;;2.38;;
53903;SDS011;39812;52.430;16.936;2023-03-23T08:02:19;6.15;;;2.60;;
53903;SDS011;39812;52.430;16.936;2023-03-23T08:04:45;8.48;;;3.60;;
53903;SDS011;39812;52.430;16.936;2023-03-23T08:07:12;7.32;;;3.67;;
53903;SDS011;39812;52.430;16.936;2023-03-23T08:09:38;7.88;;;3.10;;
53903;SDS011;39812;52.430;16.936;2023-03-23T08:12:04;5.57;;;2.70;;
53903;SDS011;39812;52.430;16.936;2023-03-23T08:14:30;6.43;;;2.78;;
53903;SDS011;39812;52.430;16.936;2023-03-23T08:16:56;4.47;;;1.75;;
53903;SDS011;39812;52.430;16.936;2023-03-23T08:19:22;7.35;;;2.20;;
53903;SDS011;39812;52.430;16.936;2023-03-23T08:21:48;4.82;;;2.17;;
53903;SDS011;39812;52.430;16.936;2023-03-23T08:24:14;5.00;;;2.47;;
53903;SDS011;39812;52.430;16.936;2023-03-23T08:26:40;4.10;;;1.95;;
53903;SDS011;39812;52.430;16.936;2023-03-23T08:29:06;7.07;;;2.97;;
53903;SDS011;39812;52.430;16.936;2023-03-23T08:31:33;6.20;;;3.03;;
53903;SDS011;39812;52.430;16.936;2023-03-23T08:34:01;8.15;;;3.15;;
53903;SDS011;39812;52.430;16.936;2023-03-23T08:36:29;5.28;;;2.20;;
53903;SDS011;39812;52.430;16.936;2023-03-23T08:38:56;6.38;;;2.53;;
53903;SDS011;39812;52.430;16.936;2023-03-23T08:41:23;4.50;;;2.08;;
53903;SDS011;39812;52.430;16.936;2023-03-23T08:43:49;5.35;;;2.22;;
53903;SDS011;39812;52.430;16.936;2023-03-23T08:46:15;5.40;;;2.28;;
53903;SDS011;39812;52.430;16.936;2023-03-23T08:48:41;6.93;;;2.53;;
53903;SDS011;39812;52.430;16.936;2023-03-23T08:51:08;17.13;;;3.53;;
53903;SDS011;39812;52.430;16.936;2023-03-23T08:53:36;9.02;;;3.03;;
53903;SDS011;39812;52.430;16.936;2023-03-23T08:56:02;5.85;;;2.30;;
53903;SDS011;39812;52.430;16.936;2023-03-23T08:58:33;4.38;;;2.20;;
53903;SDS011;39812;52.430;16.936;2023-03-23T09:00:59;7.43;;;2.63;;
53903;SDS011;39812;52.430;16.936;2023-03-23T09:03:25;6.38;;;2.35;;
53903;SDS011;39812;52.430;16.936;2023-03-23T09:05:52;5.57;;;1.90;;
53903;SDS011;39812;52.430;16.936;2023-03-23T09:08:18;5.32;;;2.47;;
53903;SDS011;39812;52.430;16.936;2023-03-23T09:10:43;4.95;;;1.80;;
53903;SDS011;39812;52.430;16.936;2023-03-23T09:13:09;5.38;;;2.25;;
53903;SDS011;39812;52.430;16.936;2023-03-23T09:15:35;6.93;;;2.33;;
53903;SDS011;39812;52.430;16.936;2023-03-23T09:18:01;5.25;;;2.10;;
53903;SDS011;39812;52.430;16.936;2023-03-23T09:20:28;6.22;;;2.30;;
53903;SDS011;39812;52.430;16.936;2023-03-23T09:22:55;5.88;;;2.53;;
53903;SDS011;39812;52.430;16.936;2023-03-23T09:25:23;5.30;;;2.22;;
53903;SDS011;39812;52.430;16.936;2023-03-23T09:27:52;5.95;;;2.25;;
53903;SDS011;39812;52.430;16.936;2023-03-23T09:30:26;4.57;;;2.22;;
53903;SDS011;39812;52.430;16.936;2023-03-23T09:32:53;5.68;;;2.22;;
53903;SDS011;39812;52.430;16.936;2023-03-23T09:35:20;5.47;;;2.17;;
53903;SDS011;39812;52.430;16.936;2023-03-23T09:37:50;3.83;;;1.85;;
53903;SDS011;39812;52.430;16.936;2023-03-23T09:40:20;3.15;;;1.80;;
53903;SDS011;39812;52.430;16.936;2023-03-23T09:43:06;3.58;;;1.52;;
53903;SDS011;39812;52.430;16.936;2023-03-23T09:48:56;3.33;;;1.45;;
53903;SDS011;39812;52.430;16.936;2023-03-23T09:54:14;6.65;;;1.38;;
53903;SDS011;39812;52.430;16.936;2023-03-23T09:56:42;4.30;;;1.60;;
53903;SDS011;39812;52.430;16.936;2023-03-23T09:59:12;2.78;;;1.55;;
53903;SDS011;39812;52.430;16.936;2023-03-23T10:01:51;4.25;;;1.90;;
53903;SDS011;39812;52.430;16.936;2023-03-23T10:04:36;2.85;;;1.50;;
53903;SDS011;39812;52.430;16.936;2023-03-23T10:07:14;2.53;;;1.38;;
53903;SDS011;39812;52.430;16.936;2023-03-23T10:09:45;6.18;;;1.40;;
53903;SDS011;39812;52.430;16.936;2023-03-23T10:15:21;2.53;;;1.30;;
53903;SDS011;39812;52.430;16.936;2023-03-23T10:17:59;4.28;;;1.45;;
53903;SDS011;39812;52.430;16.936;2023-03-23T10:20:50;4.93;;;1.50;;
53903;SDS011;39812;52.430;16.936;2023-03-23T10:25:55;2.83;;;1.20;;
53903;SDS011;39812;52.430;16.936;2023-03-23T10:28:41;2.47;;;1.30;;
53903;SDS011;39812;52.430;16.936;2023-03-23T10:31:10;2.30;;;1.20;;
53903;SDS011;39812;52.430;16.936;2023-03-23T10:33:44;3.33;;;1.25;;
53903;SDS011;39812;52.430;16.936;2023-03-23T10:36:34;3.08;;;1.40;;
53903;SDS011;39812;52.430;16.936;2023-03-23T10:39:18;3.60;;;1.77;;
53903;SDS011;39812;52.430;16.936;2023-03-23T10:41:46;3.45;;;1.45;;
53903;SDS011;39812;52.430;16.936;2023-03-23T10:44:19;3.35;;;1.73;;
53903;SDS011;39812;52.430;16.936;2023-03-23T10:46:58;2.90;;;1.60;;
53903;SDS011;39812;52.430;16.936;2023-03-23T10:49:28;3.30;;;1.73;;
53903;SDS011;39812;52.430;16.936;2023-03-23T10:52:03;3.70;;;1.70;;
53903;SDS011;39812;52.430;16.936;2023-03-23T10:54:49;5.93;;;1.92;;
53903;SDS011;39812;52.430;16.936;2023-03-23T10:57:20;5.80;;;1.60;;
53903;SDS011;39812;52.430;16.936;2023-03-23T10:59:57;4.72;;;1.90;;
53903;SDS011;39812;52.430;16.936;2023-03-23T11:02:44;2.55;;;1.20;;
53903;SDS011;39812;52.430;16.936;2023-03-23T11:05:23;3.38;;;1.65;;
53903;SDS011;39812;52.430;16.936;2023-03-23T11:07:54;4.97;;;1.55;;
53903;SDS011;39812;52.430;16.936;2023-03-23T11:12:49;5.15;;;1.52;;
53903;SDS011;39812;52.430;16.936;2023-03-23T11:15:37;4.60;;;1.60;;
53903;SDS011;39812;52.430;16.936;2023-03-23T11:18:04;1.90;;;1.30;;
53903;SDS011;39812;52.430;16.936;2023-03-23T11:20:39;4.57;;;1.58;;
53903;SDS011;39812;52.430;16.936;2023-03-23T11:23:09;3.08;;;1.48;;
53903;SDS011;39812;52.430;16.936;2023-03-23T11:28:46;3.88;;;1.20;;
53903;SDS011;39812;52.430;16.936;2023-03-23T11:31:26;4.20;;;1.60;;
53903;SDS011;39812;52.430;16.936;2023-03-23T11:40:00;2.72;;;1.40;;
53903;SDS011;39812;52.430;16.936;2023-03-23T11:45:35;3.33;;;1.35;;
53903;SDS011;39812;52.430;16.936;2023-03-23T11:56:24;2.33;;;1.45;;
53903;SDS011;39812;52.430;16.936;2023-03-23T11:58:56;3.50;;;1.40;;
53903;SDS011;39812;52.430;16.936;2023-03-23T12:01:36;3.10;;;1.23;;
53903;SDS011;39812;52.430;16.936;2023-03-23T12:06:54;1.50;;;1.10;;
53903;SDS011;39812;52.430;16.936;2023-03-23T12:09:47;6.22;;;1.45;;
53903;SDS011;39812;52.430;16.936;2023-03-23T12:15:16;3.97;;;1.27;;
53903;SDS011;39812;52.430;16.936;2023-03-23T12:23:27;1.67;;;0.90;;
53903;SDS011;39812;52.430;16.936;2023-03-23T12:26:23;3.35;;;1.15;;
53903;SDS011;39812;52.430;16.936;2023-03-23T12:45:12;4.18;;;1.70;;
53903;SDS011;39812;52.430;16.936;2023-03-23T12:47:49;2.58;;;1.60;;
53903;SDS011;39812;52.430;16.936;2023-03-23T12:50:20;3.78;;;1.73;;
53903;SDS011;39812;52.430;16.936;2023-03-23T12:52:57;6.22;;;2.03;;
53903;SDS011;39812;52.430;16.936;2023-03-23T12:55:46;2.45;;;1.30;;
53903;SDS011;39812;52.430;16.936;2023-03-23T12:58:18;4.10;;;1.45;;
53903;SDS011;39812;52.430;16.936;2023-03-23T13:06:02;2.72;;;1.55;;
53903;SDS011;39812;52.430;16.936;2023-03-23T13:08:34;2.50;;;1.33;;
53903;SDS011;39812;52.430;16.936;2023-03-23T13:11:34;2.40;;;1.60;;
53903;SDS011;39812;52.430;16.936;2023-03-23T13:14:11;4.07;;;1.60;;
53903;SDS011;39812;52.430;16.936;2023-03-23T13:17:06;4.65;;;1.55;;
53903;SDS011;39812;52.430;16.936;2023-03-23T13:25:18;4.28;;;2.15;;
53903;SDS011;39812;52.430;16.936;2023-03-23T13:28:04;5.53;;;2.80;;
53903;SDS011;39812;52.430;16.936;2023-03-23T13:30:30;3.45;;;1.92;;
53903;SDS011;39812;52.430;16.936;2023-03-23T13:33:06;5.32;;;1.90;;
53903;SDS011;39812;52.430;16.936;2023-03-23T13:35:37;3.10;;;1.80;;
53903;SDS011;39812;52.430;16.936;2023-03-23T13:38:12;3.97;;;1.60;;
53903;SDS011;39812;52.430;16.936;2023-03-23T13:40:43;3.38;;;2.00;;
53903;SDS011;39812;52.430;16.936;2023-03-23T13:43:10;3.40;;;1.70;;
53903;SDS011;39812;52.430;16.936;2023-03-23T13:45:43;4.25;;;1.92;;
53903;SDS011;39812;52.430;16.936;2023-03-23T13:50:48;5.05;;;2.28;;
53903;SDS011;39812;52.430;16.936;2023-03-23T13:53:21;2.88;;;1.83;;
53903;SDS011;39812;52.430;16.936;2023-03-23T13:56:15;3.10;;;1.80;;
53903;SDS011;39812;52.430;16.936;2023-03-23T14:01:17;6.68;;;2.05;;
53903;SDS011;39812;52.430;16.936;2023-03-23T14:03:48;3.38;;;1.90;;
53903;SDS011;39812;52.430;16.936;2023-03-23T14:06:19;3.50;;;1.80;;
53903;SDS011;39812;52.430;16.936;2023-03-23T14:08:51;2.90;;;1.83;;
53903;SDS011;39812;52.430;16.936;2023-03-23T14:11:20;5.93;;;1.95;;
53903;SDS011;39812;52.430;16.936;2023-03-23T14:14:13;3.10;;;1.48;;
53903;SDS011;39812;52.430;16.936;2023-03-23T14:16:45;7.25;;;1.80;;
53903;SDS011;39812;52.430;16.936;2023-03-23T14:19:25;4.07;;;1.90;;
53903;SDS011;39812;52.430;16.936;2023-03-23T14:21:58;4.15;;;2.05;;
53903;SDS011;39812;52.430;16.936;2023-03-23T14:24:39;3.03;;;1.80;;
53903;SDS011;39812;52.430;16.936;2023-03-23T14:27:10;3.10;;;1.83;;
53903;SDS011;39812;52.430;16.936;2023-03-23T14:29:38;4.07;;;2.38;;
53903;SDS011;39812;52.430;16.936;2023-03-23T14:32:07;2.92;;;1.83;;
53903;SDS011;39812;52.430;16.936;2023-03-23T14:34:46;7.35;;;2.08;;
53903;SDS011;39812;52.430;16.936;2023-03-23T14:37:14;3.75;;;1.95;;
53903;SDS011;39812;52.430;16.936;2023-03-23T14:39:43;3.22;;;1.80;;
53903;SDS011;39812;52.430;16.936;2023-03-23T14:42:12;2.72;;;1.70;;
53903;SDS011;39812;52.430;16.936;2023-03-23T14:44:48;5.22;;;2.30;;
53903;SDS011;39812;52.430;16.936;2023-03-23T14:47:22;5.32;;;1.77;;
53903;SDS011;39812;52.430;16.936;2023-03-23T14:50:01;3.50;;;1.90;;
53903;SDS011;39812;52.430;16.936;2023-03-23T14:52:32;3.70;;;1.95;;
53903;SDS011;39812;52.430;16.936;2023-03-23T14:55:14;3.20;;;1.83;;
53903;SDS011;39812;52.430;16.936;2023-03-23T14:57:44;2.45;;;1.30;;
53903;SDS011;39812;52.430;16.936;2023-03-23T15:00:13;4.10;;;1.55;;
53903;SDS011;39812;52.430;16.936;2023-03-23T15:02:47;2.75;;;1.73;;
53903;SDS011;39812;52.430;16.936;2023-03-23T15:05:17;4.00;;;1.80;;
53903;SDS011;39812;52.430;16.936;2023-03-23T15:07:48;4.03;;;1.75;;
53903;SDS011;39812;52.430;16.936;2023-03-23T15:10:18;5.22;;;2.25;;
53903;SDS011;39812;52.430;16.936;2023-03-23T15:12:47;5.00;;;2.00;;
53903;SDS011;39812;52.430;16.936;2023-03-23T15:15:27;6.05;;;1.95;;
53903;SDS011;39812;52.430;16.936;2023-03-23T15:17:55;5.10;;;1.90;;
53903;SDS011;39812;52.430;16.936;2023-03-23T15:23:21;5.10;;;2.17;;
53903;SDS011;39812;52.430;16.936;2023-03-23T15:25:53;3.67;;;1.73;;
53903;SDS011;39812;52.430;16.936;2023-03-23T15:28:21;3.60;;;1.88;;
53903;SDS011;39812;52.430;16.936;2023-03-23T15:30:56;5.20;;;2.30;;
53903;SDS011;39812;52.430;16.936;2023-03-23T15:33:25;5.30;;;1.92;;
53903;SDS011;39812;52.430;16.936;2023-03-23T15:35:55;5.68;;;2.40;;
53903;SDS011;39812;52.430;16.936;2023-03-23T15:40:52;7.82;;;2.30;;
53903;SDS011;39812;52.430;16.936;2023-03-23T15:48:28;4.18;;;2.22;;
53903;SDS011;39812;52.430;16.936;2023-03-23T15:50:55;3.88;;;2.10;;
53903;SDS011;39812;52.430;16.936;2023-03-23T15:55:58;5.25;;;2.28;;
53903;SDS011;39812;52.430;16.936;2023-03-23T15:58:26;7.90;;;2.40;;
53903;SDS011;39812;52.430;16.936;2023-03-23T16:00:53;4.93;;;2.53;;
53903;SDS011;39812;52.430;16.936;2023-03-23T16:03:23;4.10;;;2.58;;
53903;SDS011;39812;52.430;16.936;2023-03-23T16:05:54;4.97;;;2.40;;
53903;SDS011;39812;52.430;16.936;2023-03-23T16:08:21;4.03;;;2.38;;
53903;SDS011;39812;52.430;16.936;2023-03-23T16:10:47;6.10;;;3.15;;
53903;SDS011;39812;52.430;16.936;2023-03-23T16:13:14;5.53;;;2.50;;
53903;SDS011;39812;52.430;16.936;2023-03-23T16:15:40;6.35;;;1.90;;
53903;SDS011;39812;52.430;16.936;2023-03-23T16:18:06;4.85;;;2.70;;
53903;SDS011;39812;52.430;16.936;2023-03-23T16:20:40;4.17;;;2.30;;
53903;SDS011;39812;52.430;16.936;2023-03-23T16:23:05;5.00;;;2.90;;
53903;SDS011;39812;52.430;16.936;2023-03-23T16:25:31;4.82;;;2.45;;
53903;SDS011;39812;52.430;16.936;2023-03-23T16:27:56;3.03;;;2.00;;
53903;SDS011;39812;52.430;16.936;2023-03-23T16:30:23;6.40;;;2.85;;
53903;SDS011;39812;52.430;16.936;2023-03-23T16:32:50;5.93;;;3.00;;
53903;SDS011;39812;52.430;16.936;2023-03-23T16:35:17;6.43;;;2.42;;
53903;SDS011;39812;52.430;16.936;2023-03-23T16:37:53;6.47;;;3.42;;
53903;SDS011;39812;52.430;16.936;2023-03-23T16:40:20;10.25;;;3.88;;
53903;SDS011;39812;52.430;16.936;2023-03-23T16:42:46;6.88;;;3.83;;